Terminal Aerodrome Forecast
Issued by NWS Amarillo, TX

Current Version | Previous Version | Text Only | Print | Product List | Glossary On
Versions: 1 2 3 4 5 6 7 8 9 10 11 12 13 14 15
000
FTUS44 KAMA 110520
TAFAMA
TAF
KAMA 110520Z 1106/1206 20016G22KT P6SM OVC200 WS010/23055KT
     FM111400 32017G25KT P6SM SCT250
     FM120100 02008KT P6SM SCT250=

USA.gov is the U.S. government's official web portal to all federal, state and local government web resources and services.